sensor_id;sensor_type;location;lat;lon;timestamp;P1;durP1;ratioP1;P2;durP2;ratioP2
3875;SDS011;1953;51.222;6.624;2022-12-29T00:02:59;3.13;;;1.87;;
3875;SDS011;1953;51.222;6.624;2022-12-29T00:09:04;1.53;;;1.43;;
3875;SDS011;1953;51.222;6.624;2022-12-29T00:13:47;1.50;;;1.40;;
3875;SDS011;1953;51.222;6.624;2022-12-29T00:18:48;1.30;;;1.30;;
3875;SDS011;1953;51.222;6.624;2022-12-29T00:23:31;2.10;;;1.40;;
3875;SDS011;1953;51.222;6.624;2022-12-29T00:28:32;1.20;;;1.10;;
3875;SDS011;1953;51.222;6.624;2022-12-29T00:33:32;5.70;;;1.50;;
3875;SDS011;1953;51.222;6.624;2022-12-29T00:38:33;1.17;;;1.10;;
3875;SDS011;1953;51.222;6.624;2022-12-29T00:43:39;2.43;;;1.10;;
3875;SDS011;1953;51.222;6.624;2022-12-29T00:48:39;0.80;;;0.80;;
3875;SDS011;1953;51.222;6.624;2022-12-29T00:53:48;0.87;;;0.87;;
3875;SDS011;1953;51.222;6.624;2022-12-29T00:58:30;1.77;;;0.73;;
3875;SDS011;1953;51.222;6.624;2022-12-29T01:03:14;1.10;;;1.00;;
3875;SDS011;1953;51.222;6.624;2022-12-29T01:07:56;1.13;;;1.03;;
3875;SDS011;1953;51.222;6.624;2022-12-29T01:12:39;0.80;;;0.80;;
3875;SDS011;1953;51.222;6.624;2022-12-29T01:17:25;1.10;;;0.80;;
3875;SDS011;1953;51.222;6.624;2022-12-29T01:22:09;0.90;;;0.90;;
3875;SDS011;1953;51.222;6.624;2022-12-29T01:26:51;0.67;;;0.67;;
3875;SDS011;1953;51.222;6.624;2022-12-29T01:31:35;0.80;;;0.80;;
3875;SDS011;1953;51.222;6.624;2022-12-29T01:36:17;0.80;;;0.80;;
3875;SDS011;1953;51.222;6.624;2022-12-29T01:41:02;0.87;;;0.87;;
3875;SDS011;1953;51.222;6.624;2022-12-29T01:45:45;1.43;;;0.80;;
3875;SDS011;1953;51.222;6.624;2022-12-29T01:50:32;1.87;;;0.90;;
3875;SDS011;1953;51.222;6.624;2022-12-29T01:55:18;1.20;;;1.10;;
3875;SDS011;1953;51.222;6.624;2022-12-29T02:00:03;1.10;;;0.90;;
3875;SDS011;1953;51.222;6.624;2022-12-29T02:04:48;0.80;;;0.80;;
3875;SDS011;1953;51.222;6.624;2022-12-29T02:09:32;1.07;;;1.07;;
3875;SDS011;1953;51.222;6.624;2022-12-29T02:14:14;1.10;;;1.00;;
3875;SDS011;1953;51.222;6.624;2022-12-29T02:19:01;1.20;;;1.20;;
3875;SDS011;1953;51.222;6.624;2022-12-29T02:29:33;1.70;;;1.20;;
3875;SDS011;1953;51.222;6.624;2022-12-29T02:34:35;6.43;;;1.40;;
3875;SDS011;1953;51.222;6.624;2022-12-29T02:39:28;2.00;;;1.50;;
3875;SDS011;1953;51.222;6.624;2022-12-29T02:44:21;2.20;;;1.40;;
3875;SDS011;1953;51.222;6.624;2022-12-29T02:49:10;1.33;;;1.23;;
3875;SDS011;1953;51.222;6.624;2022-12-29T02:53:58;1.50;;;1.40;;
3875;SDS011;1953;51.222;6.624;2022-12-29T02:58:58;1.40;;;1.30;;
3875;SDS011;1953;51.222;6.624;2022-12-29T03:03:44;1.53;;;1.20;;
3875;SDS011;1953;51.222;6.624;2022-12-29T03:08:34;1.43;;;1.03;;
3875;SDS011;1953;51.222;6.624;2022-12-29T03:13:25;2.20;;;1.20;;
3875;SDS011;1953;51.222;6.624;2022-12-29T03:18:32;1.50;;;1.40;;
3875;SDS011;1953;51.222;6.624;2022-12-29T03:23:22;1.13;;;1.03;;
3875;SDS011;1953;51.222;6.624;2022-12-29T03:28:06;1.23;;;1.13;;
3875;SDS011;1953;51.222;6.624;2022-12-29T03:32:53;1.03;;;1.03;;
3875;SDS011;1953;51.222;6.624;2022-12-29T03:37:38;1.07;;;1.07;;
3875;SDS011;1953;51.222;6.624;2022-12-29T03:42:25;3.50;;;1.10;;
3875;SDS011;1953;51.222;6.624;2022-12-29T03:47:10;1.27;;;1.10;;
3875;SDS011;1953;51.222;6.624;2022-12-29T03:51:55;1.60;;;0.80;;
3875;SDS011;1953;51.222;6.624;2022-12-29T03:56:37;5.63;;;1.10;;
3875;SDS011;1953;51.222;6.624;2022-12-29T04:01:20;1.10;;;1.10;;
3875;SDS011;1953;51.222;6.624;2022-12-29T04:06:02;0.90;;;0.90;;
3875;SDS011;1953;51.222;6.624;2022-12-29T04:10:46;0.73;;;0.70;;
3875;SDS011;1953;51.222;6.624;2022-12-29T04:15:30;1.23;;;0.90;;
3875;SDS011;1953;51.222;6.624;2022-12-29T04:20:12;1.53;;;1.07;;
3875;SDS011;1953;51.222;6.624;2022-12-29T04:25:12;1.00;;;1.00;;
3875;SDS011;1953;51.222;6.624;2022-12-29T04:29:56;2.63;;;1.03;;
3875;SDS011;1953;51.222;6.624;2022-12-29T04:34:38;1.60;;;1.50;;
3875;SDS011;1953;51.222;6.624;2022-12-29T04:39:21;14.63;;;1.53;;
3875;SDS011;1953;51.222;6.624;2022-12-29T04:44:03;1.43;;;1.30;;
3875;SDS011;1953;51.222;6.624;2022-12-29T04:48:47;0.90;;;0.90;;
3875;SDS011;1953;51.222;6.624;2022-12-29T04:53:30;2.50;;;1.10;;
3875;SDS011;1953;51.222;6.624;2022-12-29T04:58:12;1.30;;;1.20;;
3875;SDS011;1953;51.222;6.624;2022-12-29T05:02:55;3.20;;;1.27;;
3875;SDS011;1953;51.222;6.624;2022-12-29T05:07:39;1.90;;;1.37;;
3875;SDS011;1953;51.222;6.624;2022-12-29T05:12:21;1.67;;;1.13;;
3875;SDS011;1953;51.222;6.624;2022-12-29T05:17:04;2.60;;;1.30;;
3875;SDS011;1953;51.222;6.624;2022-12-29T05:21:46;1.30;;;1.20;;
3875;SDS011;1953;51.222;6.624;2022-12-29T05:26:30;3.43;;;0.93;;
3875;SDS011;1953;51.222;6.624;2022-12-29T05:31:12;1.53;;;1.37;;
3875;SDS011;1953;51.222;6.624;2022-12-29T05:35:55;2.30;;;1.10;;
3875;SDS011;1953;51.222;6.624;2022-12-29T05:40:37;3.20;;;1.40;;
3875;SDS011;1953;51.222;6.624;2022-12-29T05:45:21;1.73;;;1.50;;
3875;SDS011;1953;51.222;6.624;2022-12-29T05:50:04;6.53;;;1.10;;
3875;SDS011;1953;51.222;6.624;2022-12-29T05:54:46;1.27;;;1.13;;
3875;SDS011;1953;51.222;6.624;2022-12-29T05:59:29;1.80;;;1.53;;
3875;SDS011;1953;51.222;6.624;2022-12-29T06:04:13;3.10;;;1.70;;
3875;SDS011;1953;51.222;6.624;2022-12-29T06:08:55;2.07;;;1.20;;
3875;SDS011;1953;51.222;6.624;2022-12-29T06:13:38;2.93;;;0.97;;
3875;SDS011;1953;51.222;6.624;2022-12-29T06:18:20;3.20;;;1.27;;
3875;SDS011;1953;51.222;6.624;2022-12-29T06:23:04;2.73;;;1.07;;
3875;SDS011;1953;51.222;6.624;2022-12-29T06:27:47;1.30;;;1.17;;
3875;SDS011;1953;51.222;6.624;2022-12-29T06:32:29;1.10;;;1.00;;
3875;SDS011;1953;51.222;6.624;2022-12-29T06:37:12;3.70;;;1.47;;
3875;SDS011;1953;51.222;6.624;2022-12-29T06:41:56;2.57;;;1.10;;
3875;SDS011;1953;51.222;6.624;2022-12-29T06:46:39;1.63;;;1.10;;
3875;SDS011;1953;51.222;6.624;2022-12-29T06:51:21;4.83;;;1.00;;
3875;SDS011;1953;51.222;6.624;2022-12-29T06:56:04;1.30;;;1.00;;
3875;SDS011;1953;51.222;6.624;2022-12-29T07:00:48;3.40;;;1.20;;
3875;SDS011;1953;51.222;6.624;2022-12-29T07:05:31;1.73;;;1.17;;
3875;SDS011;1953;51.222;6.624;2022-12-29T07:10:13;1.80;;;1.20;;
3875;SDS011;1953;51.222;6.624;2022-12-29T07:14:56;2.43;;;1.10;;
3875;SDS011;1953;51.222;6.624;2022-12-29T07:19:40;3.30;;;1.27;;
3875;SDS011;1953;51.222;6.624;2022-12-29T07:24:22;3.70;;;1.10;;
3875;SDS011;1953;51.222;6.624;2022-12-29T07:29:06;2.83;;;1.50;;
3875;SDS011;1953;51.222;6.624;2022-12-29T07:33:48;2.00;;;1.43;;
3875;SDS011;1953;51.222;6.624;2022-12-29T07:38:32;6.93;;;1.40;;
3875;SDS011;1953;51.222;6.624;2022-12-29T07:43:15;1.90;;;0.83;;
3875;SDS011;1953;51.222;6.624;2022-12-29T07:47:57;2.77;;;1.23;;
3875;SDS011;1953;51.222;6.624;2022-12-29T07:52:40;3.33;;;1.20;;
3875;SDS011;1953;51.222;6.624;2022-12-29T07:57:23;7.60;;;1.40;;
3875;SDS011;1953;51.222;6.624;2022-12-29T08:02:08;6.40;;;1.60;;
3875;SDS011;1953;51.222;6.624;2022-12-29T08:06:52;2.67;;;1.53;;
3875;SDS011;1953;51.222;6.624;2022-12-29T08:11:34;3.73;;;1.20;;
3875;SDS011;1953;51.222;6.624;2022-12-29T08:16:18;3.73;;;1.40;;
3875;SDS011;1953;51.222;6.624;2022-12-29T08:21:01;5.10;;;1.63;;
3875;SDS011;1953;51.222;6.624;2022-12-29T08:25:44;3.50;;;1.50;;
3875;SDS011;1953;51.222;6.624;2022-12-29T08:30:27;5.43;;;1.60;;
3875;SDS011;1953;51.222;6.624;2022-12-29T08:35:11;7.13;;;1.40;;
3875;SDS011;1953;51.222;6.624;2022-12-29T08:39:53;9.63;;;1.70;;
3875;SDS011;1953;51.222;6.624;2022-12-29T08:44:36;6.43;;;1.40;;
3875;SDS011;1953;51.222;6.624;2022-12-29T08:49:18;4.93;;;1.63;;
3875;SDS011;1953;51.222;6.624;2022-12-29T08:54:02;4.30;;;1.23;;
3875;SDS011;1953;51.222;6.624;2022-12-29T08:58:45;8.67;;;1.40;;
3875;SDS011;1953;51.222;6.624;2022-12-29T09:03:27;10.20;;;1.17;;
3875;SDS011;1953;51.222;6.624;2022-12-29T09:08:10;7.20;;;1.60;;
3875;SDS011;1953;51.222;6.624;2022-12-29T09:12:54;3.87;;;1.30;;
3875;SDS011;1953;51.222;6.624;2022-12-29T09:17:36;10.00;;;1.70;;
3875;SDS011;1953;51.222;6.624;2022-12-29T09:22:25;6.63;;;1.63;;
3875;SDS011;1953;51.222;6.624;2022-12-29T09:27:08;6.20;;;1.70;;
3875;SDS011;1953;51.222;6.624;2022-12-29T09:31:52;6.90;;;1.47;;
3875;SDS011;1953;51.222;6.624;2022-12-29T09:36:34;6.37;;;1.57;;
3875;SDS011;1953;51.222;6.624;2022-12-29T09:41:18;3.70;;;1.00;;
3875;SDS011;1953;51.222;6.624;2022-12-29T09:46:08;4.63;;;1.47;;
3875;SDS011;1953;51.222;6.624;2022-12-29T09:51:00;4.47;;;1.30;;
3875;SDS011;1953;51.222;6.624;2022-12-29T09:55:49;4.07;;;0.93;;
3875;SDS011;1953;51.222;6.624;2022-12-29T10:00:36;5.47;;;1.70;;
3875;SDS011;1953;51.222;6.624;2022-12-29T10:05:25;4.00;;;1.47;;
3875;SDS011;1953;51.222;6.624;2022-12-29T10:10:17;6.13;;;1.70;;
3875;SDS011;1953;51.222;6.624;2022-12-29T10:15:09;5.87;;;1.67;;
3875;SDS011;1953;51.222;6.624;2022-12-29T10:25:12;5.33;;;1.17;;
3875;SDS011;1953;51.222;6.624;2022-12-29T10:30:01;9.97;;;3.30;;
3875;SDS011;1953;51.222;6.624;2022-12-29T10:34:45;1.97;;;1.00;;
3875;SDS011;1953;51.222;6.624;2022-12-29T10:39:33;2.17;;;0.87;;
3875;SDS011;1953;51.222;6.624;2022-12-29T10:44:24;4.40;;;1.20;;
3875;SDS011;1953;51.222;6.624;2022-12-29T10:49:12;5.83;;;1.57;;
3875;SDS011;1953;51.222;6.624;2022-12-29T10:53:59;2.07;;;1.13;;
3875;SDS011;1953;51.222;6.624;2022-12-29T10:58:46;8.43;;;1.83;;
3875;SDS011;1953;51.222;6.624;2022-12-29T11:03:39;8.47;;;2.33;;
3875;SDS011;1953;51.222;6.624;2022-12-29T11:08:30;7.90;;;1.57;;
3875;SDS011;1953;51.222;6.624;2022-12-29T11:13:17;4.80;;;1.70;;
3875;SDS011;1953;51.222;6.624;2022-12-29T11:18:07;5.07;;;1.83;;
3875;SDS011;1953;51.222;6.624;2022-12-29T11:23:01;3.43;;;1.40;;
3875;SDS011;1953;51.222;6.624;2022-12-29T11:27:48;9.13;;;1.57;;
3875;SDS011;1953;51.222;6.624;2022-12-29T11:32:37;8.67;;;1.87;;
3875;SDS011;1953;51.222;6.624;2022-12-29T11:37:36;3.27;;;1.30;;
3875;SDS011;1953;51.222;6.624;2022-12-29T11:42:22;7.47;;;1.40;;
3875;SDS011;1953;51.222;6.624;2022-12-29T11:47:12;4.57;;;1.97;;
3875;SDS011;1953;51.222;6.624;2022-12-29T11:52:03;4.93;;;1.83;;
3875;SDS011;1953;51.222;6.624;2022-12-29T11:56:46;7.37;;;1.73;;
3875;SDS011;1953;51.222;6.624;2022-12-29T12:01:33;3.90;;;1.80;;
3875;SDS011;1953;51.222;6.624;2022-12-29T12:10:05;4.50;;;1.67;;
3875;SDS011;1953;51.222;6.624;2022-12-29T12:14:58;6.73;;;1.63;;
3875;SDS011;1953;51.222;6.624;2022-12-29T12:19:41;3.47;;;1.20;;
3875;SDS011;1953;51.222;6.624;2022-12-29T12:24:34;5.83;;;1.47;;
3875;SDS011;1953;51.222;6.624;2022-12-29T12:29:22;10.43;;;2.20;;
3875;SDS011;1953;51.222;6.624;2022-12-29T12:34:11;2.33;;;1.10;;
3875;SDS011;1953;51.222;6.624;2022-12-29T12:38:59;3.67;;;1.20;;
3875;SDS011;1953;51.222;6.624;2022-12-29T12:43:49;9.20;;;1.73;;
3875;SDS011;1953;51.222;6.624;2022-12-29T12:48:47;3.20;;;1.30;;
3875;SDS011;1953;51.222;6.624;2022-12-29T12:53:53;4.43;;;1.70;;
3875;SDS011;1953;51.222;6.624;2022-12-29T12:58:47;10.63;;;1.83;;
3875;SDS011;1953;51.222;6.624;2022-12-29T13:03:44;6.70;;;2.60;;
3875;SDS011;1953;51.222;6.624;2022-12-29T13:08:45;8.37;;;2.40;;
3875;SDS011;1953;51.222;6.624;2022-12-29T13:13:43;6.97;;;2.07;;
3875;SDS011;1953;51.222;6.624;2022-12-29T13:18:35;5.57;;;2.20;;
3875;SDS011;1953;51.222;6.624;2022-12-29T13:23:25;15.03;;;1.60;;
3875;SDS011;1953;51.222;6.624;2022-12-29T13:28:16;13.23;;;1.77;;
3875;SDS011;1953;51.222;6.624;2022-12-29T13:33:04;9.13;;;2.50;;
3875;SDS011;1953;51.222;6.624;2022-12-29T13:38:00;4.77;;;2.10;;
3875;SDS011;1953;51.222;6.624;2022-12-29T13:42:53;11.60;;;1.60;;
3875;SDS011;1953;51.222;6.624;2022-12-29T13:47:37;5.40;;;2.20;;
3875;SDS011;1953;51.222;6.624;2022-12-29T13:52:24;3.37;;;1.63;;
3875;SDS011;1953;51.222;6.624;2022-12-29T13:57:18;3.77;;;1.37;;
3875;SDS011;1953;51.222;6.624;2022-12-29T14:02:15;4.40;;;1.20;;
3875;SDS011;1953;51.222;6.624;2022-12-29T14:07:12;5.83;;;1.50;;
3875;SDS011;1953;51.222;6.624;2022-12-29T14:11:56;4.77;;;1.27;;
3875;SDS011;1953;51.222;6.624;2022-12-29T14:16:38;2.23;;;1.40;;
3875;SDS011;1953;51.222;6.624;2022-12-29T14:21:24;5.13;;;1.23;;
3875;SDS011;1953;51.222;6.624;2022-12-29T14:26:11;8.13;;;1.87;;
3875;SDS011;1953;51.222;6.624;2022-12-29T14:30:56;5.57;;;1.27;;
3875;SDS011;1953;51.222;6.624;2022-12-29T14:35:40;5.73;;;2.00;;
3875;SDS011;1953;51.222;6.624;2022-12-29T14:40:25;4.90;;;1.30;;
3875;SDS011;1953;51.222;6.624;2022-12-29T14:45:24;9.17;;;1.90;;
3875;SDS011;1953;51.222;6.624;2022-12-29T14:50:12;6.70;;;1.77;;
3875;SDS011;1953;51.222;6.624;2022-12-29T14:54:56;10.70;;;1.80;;
3875;SDS011;1953;51.222;6.624;2022-12-29T14:59:42;5.60;;;1.63;;
3875;SDS011;1953;51.222;6.624;2022-12-29T15:04:27;4.63;;;1.70;;
3875;SDS011;1953;51.222;6.624;2022-12-29T15:09:17;6.10;;;1.50;;
3875;SDS011;1953;51.222;6.624;2022-12-29T15:19:21;4.00;;;1.27;;
3875;SDS011;1953;51.222;6.624;2022-12-29T15:24:04;5.90;;;1.70;;
3875;SDS011;1953;51.222;6.624;2022-12-29T15:28:48;6.13;;;1.77;;
3875;SDS011;1953;51.222;6.624;2022-12-29T15:33:36;8.00;;;1.60;;
3875;SDS011;1953;51.222;6.624;2022-12-29T15:38:23;4.60;;;1.70;;
3875;SDS011;1953;51.222;6.624;2022-12-29T15:43:16;4.50;;;2.53;;
3875;SDS011;1953;51.222;6.624;2022-12-29T15:48:18;6.73;;;1.77;;
3875;SDS011;1953;51.222;6.624;2022-12-29T15:53:04;11.07;;;2.23;;
3875;SDS011;1953;51.222;6.624;2022-12-29T15:57:56;6.27;;;2.70;;
3875;SDS011;1953;51.222;6.624;2022-12-29T16:02:40;8.50;;;2.10;;
3875;SDS011;1953;51.222;6.624;2022-12-29T16:07:24;9.83;;;2.33;;
3875;SDS011;1953;51.222;6.624;2022-12-29T16:12:14;6.47;;;1.97;;
3875;SDS011;1953;51.222;6.624;2022-12-29T16:17:01;5.77;;;1.87;;
3875;SDS011;1953;51.222;6.624;2022-12-29T16:21:45;4.77;;;2.10;;
3875;SDS011;1953;51.222;6.624;2022-12-29T16:26:28;5.57;;;2.00;;
3875;SDS011;1953;51.222;6.624;2022-12-29T16:31:17;11.20;;;3.97;;
3875;SDS011;1953;51.222;6.624;2022-12-29T16:36:04;12.73;;;2.87;;
3875;SDS011;1953;51.222;6.624;2022-12-29T16:41:07;9.60;;;2.50;;
3875;SDS011;1953;51.222;6.624;2022-12-29T16:51:01;5.83;;;2.23;;
3875;SDS011;1953;51.222;6.624;2022-12-29T16:55:46;9.03;;;2.63;;
3875;SDS011;1953;51.222;6.624;2022-12-29T17:00:31;7.87;;;2.30;;
3875;SDS011;1953;51.222;6.624;2022-12-29T17:05:18;8.53;;;2.37;;
3875;SDS011;1953;51.222;6.624;2022-12-29T17:10:02;6.17;;;2.03;;
3875;SDS011;1953;51.222;6.624;2022-12-29T17:14:45;6.43;;;2.00;;
3875;SDS011;1953;51.222;6.624;2022-12-29T17:19:30;7.30;;;1.83;;
3875;SDS011;1953;51.222;6.624;2022-12-29T17:24:15;8.90;;;2.97;;
3875;SDS011;1953;51.222;6.624;2022-12-29T17:29:00;11.33;;;2.53;;
3875;SDS011;1953;51.222;6.624;2022-12-29T17:33:43;7.53;;;2.33;;
3875;SDS011;1953;51.222;6.624;2022-12-29T17:38:26;4.83;;;1.80;;
3875;SDS011;1953;51.222;6.624;2022-12-29T17:43:10;3.87;;;1.73;;
3875;SDS011;1953;51.222;6.624;2022-12-29T17:47:57;3.90;;;2.43;;
3875;SDS011;1953;51.222;6.624;2022-12-29T17:52:41;3.30;;;2.23;;
3875;SDS011;1953;51.222;6.624;2022-12-29T17:57:25;6.37;;;2.53;;
3875;SDS011;1953;51.222;6.624;2022-12-29T18:02:24;8.17;;;2.77;;
3875;SDS011;1953;51.222;6.624;2022-12-29T18:07:10;6.47;;;3.10;;
3875;SDS011;1953;51.222;6.624;2022-12-29T18:11:52;12.03;;;3.00;;
3875;SDS011;1953;51.222;6.624;2022-12-29T18:16:34;13.07;;;2.43;;
3875;SDS011;1953;51.222;6.624;2022-12-29T18:21:17;6.97;;;3.43;;
3875;SDS011;1953;51.222;6.624;2022-12-29T18:26:03;13.40;;;3.20;;
3875;SDS011;1953;51.222;6.624;2022-12-29T18:30:48;8.37;;;2.70;;
3875;SDS011;1953;51.222;6.624;2022-12-29T18:35:32;18.90;;;3.73;;
3875;SDS011;1953;51.222;6.624;2022-12-29T18:40:19;11.30;;;3.07;;
3875;SDS011;1953;51.222;6.624;2022-12-29T18:45:04;7.93;;;3.00;;
3875;SDS011;1953;51.222;6.624;2022-12-29T18:49:56;11.70;;;3.33;;
3875;SDS011;1953;51.222;6.624;2022-12-29T18:54:38;10.80;;;3.33;;
3875;SDS011;1953;51.222;6.624;2022-12-29T18:59:20;13.00;;;2.70;;
3875;SDS011;1953;51.222;6.624;2022-12-29T19:04:04;11.27;;;3.07;;
3875;SDS011;1953;51.222;6.624;2022-12-29T19:08:47;10.80;;;2.87;;
3875;SDS011;1953;51.222;6.624;2022-12-29T19:13:29;13.93;;;2.63;;
3875;SDS011;1953;51.222;6.624;2022-12-29T19:18:15;10.00;;;2.87;;
3875;SDS011;1953;51.222;6.624;2022-12-29T19:23:02;6.10;;;2.20;;
3875;SDS011;1953;51.222;6.624;2022-12-29T19:27:45;14.13;;;3.10;;
3875;SDS011;1953;51.222;6.624;2022-12-29T19:32:28;11.50;;;3.30;;
3875;SDS011;1953;51.222;6.624;2022-12-29T19:37:10;16.20;;;4.30;;
3875;SDS011;1953;51.222;6.624;2022-12-29T19:41:54;8.50;;;3.27;;
3875;SDS011;1953;51.222;6.624;2022-12-29T19:46:36;15.77;;;3.03;;
3875;SDS011;1953;51.222;6.624;2022-12-29T19:51:19;6.50;;;2.80;;
3875;SDS011;1953;51.222;6.624;2022-12-29T19:56:01;4.63;;;2.80;;
3875;SDS011;1953;51.222;6.624;2022-12-29T20:00:46;6.87;;;2.97;;
3875;SDS011;1953;51.222;6.624;2022-12-29T20:05:29;6.00;;;2.67;;
3875;SDS011;1953;51.222;6.624;2022-12-29T20:10:11;13.70;;;5.53;;
3875;SDS011;1953;51.222;6.624;2022-12-29T20:14:54;12.80;;;3.87;;
3875;SDS011;1953;51.222;6.624;2022-12-29T20:19:38;11.13;;;3.40;;
3875;SDS011;1953;51.222;6.624;2022-12-29T20:24:22;9.53;;;3.70;;
3875;SDS011;1953;51.222;6.624;2022-12-29T20:29:04;12.70;;;3.63;;
3875;SDS011;1953;51.222;6.624;2022-12-29T20:33:47;6.30;;;3.00;;
3875;SDS011;1953;51.222;6.624;2022-12-29T20:38:31;10.60;;;4.00;;
3875;SDS011;1953;51.222;6.624;2022-12-29T20:43:14;22.60;;;4.53;;
3875;SDS011;1953;51.222;6.624;2022-12-29T20:47:57;10.60;;;3.40;;
3875;SDS011;1953;51.222;6.624;2022-12-29T20:52:39;12.70;;;3.60;;
3875;SDS011;1953;51.222;6.624;2022-12-29T20:57:23;9.87;;;3.37;;
3875;SDS011;1953;51.222;6.624;2022-12-29T21:02:06;10.63;;;3.30;;
3875;SDS011;1953;51.222;6.624;2022-12-29T21:06:57;11.57;;;3.90;;
3875;SDS011;1953;51.222;6.624;2022-12-29T21:11:40;21.20;;;3.77;;
3875;SDS011;1953;51.222;6.624;2022-12-29T21:16:23;9.70;;;3.07;;
3875;SDS011;1953;51.222;6.624;2022-12-29T21:21:06;14.20;;;3.70;;
3875;SDS011;1953;51.222;6.624;2022-12-29T21:25:50;12.40;;;3.80;;
3875;SDS011;1953;51.222;6.624;2022-12-29T21:30:33;9.93;;;3.37;;
3875;SDS011;1953;51.222;6.624;2022-12-29T21:35:17;8.90;;;3.57;;
3875;SDS011;1953;51.222;6.624;2022-12-29T21:40:00;20.53;;;3.93;;
3875;SDS011;1953;51.222;6.624;2022-12-29T21:44:44;15.77;;;3.90;;
3875;SDS011;1953;51.222;6.624;2022-12-29T21:49:43;10.77;;;3.20;;
3875;SDS011;1953;51.222;6.624;2022-12-29T21:54:28;14.17;;;3.93;;
3875;SDS011;1953;51.222;6.624;2022-12-29T21:59:29;10.80;;;3.87;;
3875;SDS011;1953;51.222;6.624;2022-12-29T22:04:29;6.30;;;3.07;;
3875;SDS011;1953;51.222;6.624;2022-12-29T22:09:30;8.30;;;3.60;;
3875;SDS011;1953;51.222;6.624;2022-12-29T22:14:31;10.00;;;3.30;;
3875;SDS011;1953;51.222;6.624;2022-12-29T22:19:13;11.47;;;3.47;;
3875;SDS011;1953;51.222;6.624;2022-12-29T22:23:56;9.90;;;2.90;;
3875;SDS011;1953;51.222;6.624;2022-12-29T22:28:42;11.03;;;2.90;;
3875;SDS011;1953;51.222;6.624;2022-12-29T22:33:25;8.07;;;3.10;;
3875;SDS011;1953;51.222;6.624;2022-12-29T22:38:08;8.80;;;3.33;;
3875;SDS011;1953;51.222;6.624;2022-12-29T22:42:50;18.50;;;3.83;;
3875;SDS011;1953;51.222;6.624;2022-12-29T22:47:34;7.90;;;3.50;;
3875;SDS011;1953;51.222;6.624;2022-12-29T22:52:16;9.90;;;3.50;;
3875;SDS011;1953;51.222;6.624;2022-12-29T22:56:59;21.83;;;3.80;;
3875;SDS011;1953;51.222;6.624;2022-12-29T23:01:41;15.70;;;3.70;;
3875;SDS011;1953;51.222;6.624;2022-12-29T23:06:25;13.43;;;3.67;;
3875;SDS011;1953;51.222;6.624;2022-12-29T23:11:08;16.77;;;3.90;;
3875;SDS011;1953;51.222;6.624;2022-12-29T23:15:52;13.20;;;3.50;;
3875;SDS011;1953;51.222;6.624;2022-12-29T23:20:34;15.80;;;3.33;;
3875;SDS011;1953;51.222;6.624;2022-12-29T23:25:18;20.20;;;4.60;;
3875;SDS011;1953;51.222;6.624;2022-12-29T23:30:00;15.87;;;3.67;;
3875;SDS011;1953;51.222;6.624;2022-12-29T23:34:43;12.80;;;3.20;;
3875;SDS011;1953;51.222;6.624;2022-12-29T23:39:25;15.17;;;2.80;;
3875;SDS011;1953;51.222;6.624;2022-12-29T23:44:10;15.70;;;3.50;;
3875;SDS011;1953;51.222;6.624;2022-12-29T23:48:52;16.73;;;3.70;;
3875;SDS011;1953;51.222;6.624;2022-12-29T23:53:35;10.77;;;3.30;;
3875;SDS011;1953;51.222;6.624;2022-12-29T23:58:19;9.97;;;2.80;;
